createdAt,value
2019-05-05T00:08:16.895Z,1.73
2019-05-05T00:11:46.327Z,1.60
2019-05-05T00:15:08.248Z,1.90
2019-05-05T00:18:17.466Z,2.40
2019-05-05T00:21:25.552Z,1.83
2019-05-05T00:24:35.445Z,1.90
2019-05-05T00:30:50.564Z,1.80
2019-05-05T00:33:58.499Z,1.93
2019-05-05T00:37:06.596Z,1.73
2019-05-05T00:40:15.113Z,1.57
2019-05-05T00:43:25.237Z,1.70
2019-05-05T00:46:48.236Z,1.73
2019-05-05T00:49:56.844Z,1.83
2019-05-05T00:53:05.347Z,1.93
2019-05-05T00:56:14.409Z,1.90
2019-05-05T00:59:25.218Z,2.20
2019-05-05T01:02:48.060Z,2.30
2019-05-05T01:06:11.396Z,2.17
2019-05-05T01:12:30.282Z,2.27
2019-05-05T01:15:38.606Z,2.03
2019-05-05T01:18:46.537Z,2.27
2019-05-05T01:21:54.549Z,2.17
2019-05-05T01:25:02.540Z,2.03
2019-05-05T01:28:10.561Z,2.13
2019-05-05T01:31:20.265Z,2.30
2019-05-05T01:34:35.261Z,2.23
2019-05-05T01:37:49.129Z,2.40
2019-05-05T01:41:16.253Z,2.13
2019-05-05T01:44:24.721Z,2.57
2019-05-05T01:47:34.596Z,2.60
2019-05-05T01:50:42.507Z,2.83
2019-05-05T01:53:50.424Z,2.93
2019-05-05T01:56:58.569Z,2.80
2019-05-05T02:00:06.649Z,2.70
2019-05-05T02:03:14.819Z,2.83
2019-05-05T02:06:24.865Z,2.70
2019-05-05T02:09:35.381Z,2.37
2019-05-05T02:12:44.721Z,2.47
2019-05-05T02:15:52.672Z,2.50
2019-05-05T02:19:00.551Z,2.60
2019-05-05T02:22:08.561Z,2.23
2019-05-05T02:25:16.640Z,2.67
2019-05-05T02:28:26.359Z,2.70
2019-05-05T02:31:55.271Z,2.87
2019-05-05T02:35:06.367Z,2.50
2019-05-05T02:38:15.682Z,2.60
2019-05-05T02:41:25.415Z,2.37
2019-05-05T02:49:15.107Z,2.27
2019-05-05T02:52:24.591Z,2.13
2019-05-05T02:55:34.692Z,2.40
2019-05-05T03:01:55.407Z,3.00
2019-05-05T03:08:13.866Z,2.77
2019-05-05T03:11:23.729Z,2.67
2019-05-05T03:14:31.707Z,2.70
2019-05-05T03:17:39.511Z,2.50
2019-05-05T03:21:01.243Z,2.33
2019-05-05T03:23:57.510Z,2.33
2019-05-05T03:27:05.560Z,2.27
2019-05-05T03:30:15.396Z,3.07
2019-05-05T03:33:25.044Z,3.03
2019-05-05T03:36:33.902Z,2.47
2019-05-05T03:39:46.223Z,2.63
2019-05-05T03:43:01.709Z,2.57
2019-05-05T03:46:10.502Z,2.67
2019-05-05T03:49:18.629Z,2.10
2019-05-05T03:52:26.533Z,2.30
2019-05-05T03:55:35.917Z,2.80
2019-05-05T03:58:44.181Z,3.40
2019-05-05T04:02:05.354Z,2.63
2019-05-05T04:05:30.905Z,2.53
2019-05-05T04:08:38.737Z,2.83
2019-05-05T04:11:46.913Z,2.53
2019-05-05T04:14:55.370Z,4.60
2019-05-05T04:18:15.352Z,5.00
2019-05-05T04:21:31.311Z,10.60
2019-05-05T04:24:34.169Z,2.50
2019-05-05T04:31:49.890Z,2.20
2019-05-05T04:34:57.614Z,2.23
2019-05-05T04:38:07.238Z,5.70
2019-05-05T04:41:15.372Z,3.17
2019-05-05T04:44:23.714Z,2.50
2019-05-05T04:47:35.101Z,1.63
2019-05-05T04:51:05.249Z,1.70
2019-05-05T04:54:27.585Z,1.50
2019-05-05T04:57:35.550Z,1.83
2019-05-05T05:00:44.117Z,1.90
2019-05-05T05:04:03.695Z,1.70
2019-05-05T05:07:13.528Z,1.23
2019-05-05T05:13:28.559Z,1.10
2019-05-05T05:16:37.239Z,1.40
2019-05-05T05:19:45.372Z,1.17
2019-05-05T05:22:54.428Z,1.40
2019-05-05T05:26:05.114Z,1.03
2019-05-05T05:29:14.879Z,1.43
2019-05-05T05:32:24.510Z,1.03
2019-05-05T05:38:43.720Z,1.07
2019-05-05T05:41:53.900Z,1.27
2019-05-05T05:48:23.676Z,0.97
2019-05-05T05:51:31.668Z,1.17
2019-05-05T05:54:41.515Z,1.50
2019-05-05T05:57:49.547Z,1.20
2019-05-05T06:00:58.465Z,0.67
2019-05-05T06:07:14.196Z,1.10
2019-05-05T06:13:33.256Z,1.23
2019-05-05T06:16:40.917Z,0.70
2019-05-05T06:19:49.248Z,1.10
2019-05-05T06:22:58.552Z,0.87
2019-05-05T06:26:07.516Z,0.90
2019-05-05T06:29:15.543Z,0.80
2019-05-05T06:32:23.867Z,1.10
2019-05-05T06:35:33.750Z,1.07
2019-05-05T06:38:43.553Z,1.23
2019-05-05T06:42:00.913Z,1.37
2019-05-05T06:45:16.445Z,0.80
2019-05-05T06:48:24.479Z,1.37
2019-05-05T06:51:34.261Z,1.43
2019-05-05T06:54:43.825Z,1.20
2019-05-05T06:57:53.932Z,1.10
2019-05-05T07:01:03.746Z,1.00
2019-05-05T07:04:13.842Z,0.97
2019-05-05T07:07:23.567Z,1.70
2019-05-05T07:10:33.716Z,1.77
2019-05-05T07:13:44.169Z,1.23
2019-05-05T07:21:23.896Z,1.30
2019-05-05T07:24:34.507Z,1.07
2019-05-05T07:27:44.267Z,1.30
2019-05-05T07:33:59.665Z,1.37
2019-05-05T07:37:07.577Z,1.20
2019-05-05T07:40:15.932Z,1.13
2019-05-05T07:43:24.096Z,1.10
2019-05-05T07:46:34.468Z,1.30
2019-05-05T07:49:44.313Z,1.10
2019-05-05T07:52:54.555Z,1.17
2019-05-05T07:59:11.634Z,0.93
2019-05-05T08:02:23.529Z,0.90
2019-05-05T08:05:33.396Z,1.60
2019-05-05T08:08:44.223Z,1.20
2019-05-05T08:11:51.670Z,1.30
2019-05-05T08:15:01.266Z,3.27
2019-05-05T08:18:44.712Z,1.17
2019-05-05T08:21:54.249Z,1.37
2019-05-05T08:25:11.277Z,1.53
2019-05-05T08:28:47.288Z,0.90
2019-05-05T08:32:17.349Z,1.13
2019-05-05T08:35:25.434Z,0.70
2019-05-05T08:41:45.422Z,1.10
2019-05-05T08:44:54.101Z,0.80
2019-05-05T08:48:02.258Z,0.90
2019-05-05T08:51:11.631Z,0.60
2019-05-05T08:54:20.393Z,0.80
2019-05-05T09:00:35.649Z,0.80
2019-05-05T09:03:44.530Z,1.00
2019-05-05T09:06:54.336Z,0.90
2019-05-05T09:13:57.596Z,1.13
2019-05-05T09:17:06.103Z,1.20
2019-05-05T09:20:16.241Z,1.10
2019-05-05T09:23:24.498Z,0.90
2019-05-05T09:26:45.251Z,0.93
2019-05-05T09:29:54.406Z,0.90
2019-05-05T09:36:13.779Z,0.87
2019-05-05T09:39:21.629Z,0.80
2019-05-05T09:42:30.021Z,0.60
2019-05-05T09:45:38.753Z,0.70
2019-05-05T09:48:46.549Z,0.70
2019-05-05T09:51:55.412Z,1.00
2019-05-05T09:58:16.202Z,0.60
2019-05-05T10:01:25.556Z,0.60
2019-05-05T10:04:34.776Z,0.80
2019-05-05T10:07:45.529Z,0.90
2019-05-05T10:10:54.762Z,0.70
2019-05-05T10:14:04.012Z,0.60
2019-05-05T10:17:14.134Z,0.63
2019-05-05T10:23:34.891Z,1.03
2019-05-05T10:26:44.591Z,1.27
2019-05-05T10:29:54.759Z,1.53
2019-05-05T10:33:08.746Z,1.03
2019-05-05T10:36:16.611Z,0.60
2019-05-05T10:39:33.358Z,0.77
2019-05-05T10:42:53.921Z,1.17
2019-05-05T10:46:03.897Z,0.60
2019-05-05T10:49:13.729Z,0.70
2019-05-05T10:52:22.464Z,0.50
2019-05-05T10:55:30.698Z,0.47
2019-05-05T10:58:40.551Z,0.60
2019-05-05T11:01:48.591Z,0.63
2019-05-05T11:04:58.252Z,0.50
2019-05-05T11:08:06.369Z,0.60
2019-05-05T11:14:22.938Z,0.60
2019-05-05T11:17:31.243Z,0.60
2019-05-05T11:20:39.666Z,0.57
2019-05-05T11:23:47.665Z,1.57
2019-05-05T11:26:56.092Z,1.07
2019-05-05T11:30:14.302Z,0.60
2019-05-05T11:33:44.384Z,0.63
2019-05-05T11:37:13.391Z,0.70
2019-05-05T11:40:32.575Z,0.87
2019-05-05T11:43:41.202Z,0.57
2019-05-05T11:46:49.983Z,0.73
2019-05-05T11:50:00.070Z,0.77
2019-05-05T11:53:08.527Z,0.90
2019-05-05T11:56:16.619Z,1.10
2019-05-05T11:59:25.552Z,0.73
2019-05-05T12:02:36.803Z,0.70
2019-05-05T12:05:44.843Z,0.70
2019-05-05T12:08:54.494Z,0.63
2019-05-05T12:12:11.357Z,0.80
2019-05-05T12:15:21.525Z,0.80
2019-05-05T12:18:31.257Z,0.53
2019-05-05T12:21:39.694Z,0.73
2019-05-05T12:24:49.928Z,0.60
2019-05-05T12:28:05.567Z,0.57
2019-05-05T12:31:19.422Z,0.50
2019-05-05T12:34:28.249Z,0.87
2019-05-05T12:37:37.736Z,1.00
2019-05-05T12:40:46.774Z,1.00
2019-05-05T12:43:56.281Z,0.80
2019-05-05T12:47:34.312Z,0.80
2019-05-05T12:50:44.965Z,0.73
2019-05-05T12:53:54.713Z,0.67
2019-05-05T12:57:05.964Z,0.70
2019-05-05T13:00:15.984Z,1.00
2019-05-05T13:03:25.907Z,0.70
2019-05-05T13:06:36.635Z,0.70
2019-05-05T13:09:46.252Z,0.87
2019-05-05T13:12:54.616Z,0.60
2019-05-05T13:16:04.273Z,0.47
2019-05-05T13:19:48.979Z,0.60
2019-05-05T13:23:14.963Z,0.70
2019-05-05T13:26:42.587Z,0.73
2019-05-05T13:29:53.516Z,0.90
2019-05-05T13:36:13.855Z,0.77
2019-05-05T13:39:24.589Z,0.70
2019-05-05T13:45:48.393Z,0.77
2019-05-05T13:52:08.651Z,0.60
2019-05-05T13:55:17.395Z,0.90
2019-05-05T13:58:26.792Z,1.23
2019-05-05T14:01:38.476Z,0.60
2019-05-05T14:04:49.012Z,0.70
2019-05-05T14:07:57.546Z,0.50
2019-05-05T14:11:06.311Z,0.93
2019-05-05T14:14:17.473Z,0.77
2019-05-05T14:17:27.237Z,0.60
2019-05-05T14:20:36.606Z,0.83
2019-05-05T14:24:07.468Z,1.00
2019-05-05T14:27:15.654Z,0.90
2019-05-05T14:30:56.178Z,0.80
2019-05-05T14:34:13.937Z,0.90
2019-05-05T14:40:48.392Z,0.77
2019-05-05T14:43:59.067Z,0.80
2019-05-05T14:47:08.458Z,0.60
2019-05-05T14:50:20.676Z,0.73
2019-05-05T14:53:30.485Z,0.67
2019-05-05T14:56:39.624Z,1.00
2019-05-05T14:59:47.507Z,0.90
2019-05-05T15:02:58.008Z,0.90
2019-05-05T15:06:17.650Z,1.00
2019-05-05T15:13:00.287Z,1.00
2019-05-05T15:16:10.392Z,1.00
2019-05-05T15:19:19.473Z,1.00
2019-05-05T15:22:28.334Z,1.03
2019-05-05T15:25:37.102Z,1.10
2019-05-05T15:28:58.619Z,0.93
2019-05-05T15:31:56.491Z,1.07
2019-05-05T15:35:05.236Z,1.10
2019-05-05T15:38:13.849Z,1.10
2019-05-05T15:41:23.630Z,1.03
2019-05-05T15:44:34.589Z,1.10
2019-05-05T15:47:43.709Z,1.07
2019-05-05T15:50:54.490Z,1.23
2019-05-05T15:54:04.037Z,0.80
2019-05-05T15:57:18.052Z,0.93
2019-05-05T16:00:29.063Z,1.40
2019-05-05T16:03:41.240Z,1.23
2019-05-05T16:06:50.745Z,1.40
2019-05-05T16:09:59.103Z,0.93
2019-05-05T16:34:33.758Z,1.17
2019-05-05T16:37:43.009Z,1.23
2019-05-05T16:40:53.780Z,1.20
2019-05-05T16:44:02.571Z,1.00
2019-05-05T16:47:13.913Z,1.20
2019-05-05T16:50:25.327Z,1.00
2019-05-05T16:53:38.486Z,0.93
2019-05-05T16:56:48.267Z,1.10
2019-05-05T16:59:58.318Z,1.17
2019-05-05T17:03:07.798Z,1.03
2019-05-05T17:06:15.919Z,1.00
2019-05-05T17:09:24.840Z,1.03
2019-05-05T17:12:33.763Z,0.90
2019-05-05T17:16:10.441Z,0.53
2019-05-05T17:19:29.276Z,0.60
2019-05-05T17:22:57.398Z,0.83
2019-05-05T17:29:14.617Z,0.70
2019-05-05T17:32:24.886Z,1.00
2019-05-05T17:35:33.708Z,0.70
2019-05-05T17:38:44.230Z,0.93
2019-05-05T17:42:17.645Z,0.87
2019-05-05T17:45:30.420Z,1.43
2019-05-05T17:52:05.255Z,1.00
2019-05-05T17:55:28.443Z,1.10
2019-05-05T18:01:44.236Z,0.87
2019-05-05T18:04:54.107Z,0.60
2019-05-05T18:11:16.981Z,1.07
2019-05-05T18:14:27.002Z,1.30
2019-05-05T18:17:36.378Z,0.97
2019-05-05T18:20:45.114Z,0.83
2019-05-05T18:23:54.555Z,0.73
2019-05-05T18:27:06.606Z,1.00
2019-05-05T18:30:18.012Z,1.10
2019-05-05T18:33:28.761Z,1.23
2019-05-05T18:36:39.754Z,0.90
2019-05-05T18:39:52.113Z,1.30
2019-05-05T18:43:04.028Z,1.00
2019-05-05T18:46:14.257Z,0.90
2019-05-05T18:49:23.997Z,0.67
2019-05-05T18:52:35.652Z,1.07
2019-05-05T18:55:45.514Z,1.40
2019-05-05T18:58:54.350Z,1.53
2019-05-05T19:05:38.723Z,1.10
2019-05-05T19:08:54.604Z,0.87
2019-05-05T19:12:04.148Z,1.27
2019-05-05T19:15:13.628Z,1.00
2019-05-05T19:18:24.331Z,1.13
2019-05-05T19:21:43.769Z,1.10
2019-05-05T19:24:54.724Z,1.33
2019-05-05T19:28:04.727Z,1.10
2019-05-05T19:31:14.086Z,1.30
2019-05-05T19:34:24.090Z,1.40
2019-05-05T19:37:33.571Z,1.67
2019-05-05T19:40:43.424Z,1.40
2019-05-05T19:43:55.102Z,1.60
2019-05-05T19:47:10.583Z,2.30
2019-05-05T19:50:27.303Z,13.17
2019-05-05T19:53:38.299Z,14.33
2019-05-05T19:56:46.610Z,32.97
2019-05-05T19:59:54.751Z,25.07
2019-05-05T20:03:05.135Z,8.00
2019-05-05T20:06:14.150Z,6.33
2019-05-05T20:09:25.585Z,4.83
2019-05-05T20:12:34.447Z,2.60
2019-05-05T20:18:55.925Z,2.40
2019-05-05T20:22:04.158Z,1.80
2019-05-05T20:25:14.028Z,2.27
2019-05-05T20:28:24.047Z,1.37
2019-05-05T20:31:34.599Z,1.63
2019-05-05T20:35:21.304Z,1.47
2019-05-05T20:38:44.044Z,1.73
2019-05-05T20:41:54.341Z,1.60
2019-05-05T20:48:13.026Z,1.80
2019-05-05T20:51:24.314Z,1.70
2019-05-05T20:54:32.702Z,1.33
2019-05-05T20:57:41.261Z,1.60
2019-05-05T21:00:49.620Z,1.57
2019-05-05T21:03:57.523Z,1.63
2019-05-05T21:07:06.287Z,2.33
2019-05-05T21:10:14.578Z,3.10
2019-05-05T21:13:22.766Z,2.53
2019-05-05T21:16:30.674Z,1.70
2019-05-05T21:19:38.571Z,1.30
2019-05-05T21:23:08.239Z,3.23
2019-05-05T21:26:44.932Z,2.30
2019-05-05T21:29:54.368Z,1.90
2019-05-05T21:33:04.378Z,1.73
2019-05-05T21:36:14.799Z,1.97
2019-05-05T21:39:24.881Z,2.77
2019-05-05T21:42:34.867Z,2.97
2019-05-05T21:45:44.455Z,3.53
2019-05-05T21:48:54.396Z,3.80
2019-05-05T21:52:18.462Z,3.93
2019-05-05T21:58:46.558Z,1.63
2019-05-05T22:01:54.934Z,1.10
2019-05-05T22:05:04.038Z,1.23
2019-05-05T22:08:14.323Z,1.10
2019-05-05T22:11:24.285Z,1.50
2019-05-05T22:14:34.113Z,1.73
2019-05-05T22:17:44.634Z,1.67
2019-05-05T22:21:04.294Z,1.90
2019-05-05T22:24:22.432Z,1.30
2019-05-05T22:30:37.706Z,1.60
2019-05-05T22:33:46.662Z,2.00
2019-05-05T22:36:54.577Z,1.83
2019-05-05T22:40:02.586Z,1.80
2019-05-05T22:43:10.707Z,2.07
2019-05-05T22:46:18.775Z,2.17
2019-05-05T22:49:26.589Z,2.67
2019-05-05T22:52:34.631Z,2.83
2019-05-05T22:55:43.924Z,2.97
2019-05-05T22:58:54.580Z,3.30
2019-05-05T23:02:03.965Z,2.10
2019-05-05T23:05:24.055Z,2.47
2019-05-05T23:08:32.550Z,2.10
2019-05-05T23:11:44.008Z,2.00
2019-05-05T23:14:52.048Z,1.80
2019-05-05T23:18:14.257Z,1.90
2019-05-05T23:21:34.305Z,2.27
2019-05-05T23:28:04.071Z,1.80
2019-05-05T23:31:15.976Z,2.03
2019-05-05T23:34:24.232Z,1.37
2019-05-05T23:37:34.341Z,1.93
2019-05-05T23:40:42.469Z,1.50
2019-05-05T23:43:54.273Z,1.20
2019-05-05T23:47:01.846Z,1.70
2019-05-05T23:50:10.100Z,1.63
2019-05-05T23:53:18.012Z,1.40
2019-05-05T23:56:26.030Z,1.40
2019-05-05T23:59:33.903Z,1.60
